Time;durP1;ratioP1;P1;durP2;ratioP2;P2;SDS_P1;SDS_P2;PMS_P1;PMS_P2;Temp;Humidity;BMP_temperature;BMP_pressure;BME280_temperature;BME280_humidity;BME280_pressure;Samples;Min_cycle;Max_cycle;Signal;HPM_P1;HPM_P2
2022/09/07 00:00:07;;;;;;;20.30;19.20;;;;;;;15.37;100.00;99913.38;10583140;28;20066;-73
2022/09/07 00:05:09;;;;;;;22.13;20.92;;;;;;;15.47;100.00;99908.41;10583257;28;20512;-71
2022/09/07 00:10:10;;;;;;;23.60;21.65;;;;;;;15.41;100.00;99913.22;10582601;28;20067;-71
2022/09/07 00:15:12;;;;;;;22.75;21.45;;;;;;;15.37;100.00;99912.50;10582995;28;20044;-71
2022/09/07 00:20:14;;;;;;;20.17;18.98;;;;;;;15.43;100.00;99898.94;10582701;28;20036;-71
2022/09/07 00:25:16;;;;;;;19.63;18.63;;;;;;;15.34;100.00;99896.78;10582253;28;20111;-71
2022/09/07 00:30:17;;;;;;;23.40;22.00;;;;;;;15.20;100.00;99896.66;10582177;28;20047;-72
2022/09/07 00:35:19;;;;;;;22.48;21.25;;;;;;;15.05;100.00;99895.66;10582564;28;20047;-72
2022/09/07 00:40:20;;;;;;;22.52;21.23;;;;;;;15.11;100.00;99890.06;10583220;28;20039;-71
2022/09/07 00:45:22;;;;;;;22.15;20.95;;;;;;;15.38;100.00;99896.53;10590728;28;20047;-72
2022/09/07 00:50:47;;;;;;;21.85;20.63;;;;;;;15.35;100.00;99883.44;10590536;28;20062;-71
2022/09/07 00:55:51;;;;;;;20.98;19.77;;;;;;;15.12;100.00;99884.66;10549514;22;20076;-67
2022/09/07 01:00:54;;;;;;;19.80;18.58;;;;;;;15.29;100.00;99883.78;10506446;28;20460;-68
2022/09/07 01:06:08;;;;;;;19.33;18.05;;;;;;;15.25;100.00;99881.38;10525179;28;20127;-67
2022/09/07 01:11:10;;;;;;;19.60;18.55;;;;;;;15.23;100.00;99867.34;10549020;28;20396;-68
2022/09/07 01:16:50;;;;;;;18.08;17.05;;;;;;;15.41;100.00;99871.69;10514336;28;20079;-68
2022/09/07 01:21:54;;;;;;;17.02;15.57;;;;;;;15.44;100.00;99866.19;10548393;28;20040;-68
2022/09/07 01:27:14;;;;;;;17.90;16.50;;;;;;;15.45;100.00;99865.28;10547529;28;20067;-68
2022/09/07 01:32:24;;;;;;;17.55;16.45;;;;;;;15.46;100.00;99868.78;10528906;28;20485;-68
2022/09/07 01:37:52;;;;;;;17.05;16.05;;;;;;;15.38;100.00;99862.09;10547123;28;20048;-68
2022/09/07 01:43:05;;;;;;;16.75;15.70;;;;;;;15.55;100.00;99866.47;10547312;28;20127;-68
2022/09/07 01:48:13;;;;;;;16.73;15.82;;;;;;;15.40;100.00;99859.34;10529483;28;20078;-68
2022/09/07 01:53:22;;;;;;;16.83;15.40;;;;;;;15.35;100.00;99866.69;10528801;28;20118;-68
2022/09/07 01:58:33;;;;;;;15.88;14.98;;;;;;;15.41;100.00;99866.38;10546718;28;20042;-68
2022/09/07 02:03:44;;;;;;;17.05;15.95;;;;;;;15.47;100.00;99868.69;10546483;28;20044;-68
2022/09/07 02:08:49;;;;;;;17.35;16.25;;;;;;;15.55;100.00;99868.28;10546194;28;20493;-68
2022/09/07 02:14:00;;;;;;;16.35;15.45;;;;;;;15.27;100.00;99876.84;10529911;28;20032;-69
2022/09/07 02:19:07;;;;;;;17.00;16.08;;;;;;;15.32;100.00;99870.38;10528016;28;20040;-68
2022/09/07 02:24:16;;;;;;;15.88;14.98;;;;;;;15.40;100.00;99859.34;10527539;28;20048;-69
2022/09/07 02:29:17;;;;;;;17.95;16.75;;;;;;;15.24;100.00;99859.34;10546360;28;20492;-68
2022/09/07 02:34:19;;;;;;;17.17;16.10;;;;;;;15.15;100.00;99857.19;10545806;28;20130;-69
2022/09/07 02:39:21;;;;;;;15.88;14.98;;;;;;;15.21;100.00;99851.56;10526675;28;20052;-68
2022/09/07 02:44:30;;;;;;;15.57;14.75;;;;;;;15.24;100.00;99842.59;10544246;28;20040;-68
2022/09/07 02:49:56;;;;;;;15.32;14.32;;;;;;;15.32;100.00;99840.41;10526454;28;20044;-69
2022/09/07 02:55:03;;;;;;;14.90;13.77;;;;;;;15.41;100.00;99836.41;10544273;28;20382;-67
2022/09/07 03:00:10;;;;;;;14.60;13.80;;;;;;;15.32;100.00;99832.47;10526462;28;20316;-68
2022/09/07 03:05:30;;;;;;;;;;;;;;;15.28;100.00;99833.56;10543663;28;20050;-68
2022/09/07 03:10:33;;;;;;;14.25;13.40;;;;;;;15.23;100.00;99831.16;10525697;28;20010;-69
2022/09/07 03:15:34;;;;;;;14.85;14.05;;;;;;;15.26;100.00;99841.56;10543481;28;20050;-68
2022/09/07 03:20:36;;;;;;;15.45;14.63;;;;;;;15.18;100.00;99848.22;10525849;28;20044;-68
2022/09/07 03:25:37;;;;;;;14.65;13.75;;;;;;;15.18;100.00;99851.72;10544441;28;20124;-68
2022/09/07 03:30:45;;;;;;;15.52;14.63;;;;;;;14.96;100.00;99843.19;10544746;28;20378;-67
2022/09/07 03:35:58;;;;;;;15.65;14.65;;;;;;;14.87;100.00;99833.97;10525478;28;20059;-68
2022/09/07 03:41:02;;;;;;;15.70;14.65;;;;;;;14.96;100.00;99837.91;10526133;28;20036;-68
2022/09/07 03:46:05;;;;;;;14.80;13.95;;;;;;;14.91;100.00;99834.66;10543580;28;20541;-67
2022/09/07 03:51:10;;;;;;;14.70;13.90;;;;;;;15.13;100.00;99844.00;10543556;28;20555;-68
2022/09/07 03:56:20;;;;;;;15.55;14.48;;;;;;;15.08;100.00;99843.41;10542410;28;20051;-68
2022/09/07 04:01:24;;;;;;;14.90;13.90;;;;;;;14.89;100.00;99838.25;10542359;28;20041;-68
2022/09/07 04:06:26;;;;;;;16.35;15.20;;;;;;;14.92;100.00;99836.34;10523558;28;20052;-68
2022/09/07 04:11:28;;;;;;;16.50;15.23;;;;;;;14.91;100.00;99842.59;10523740;28;20040;-68
2022/09/07 04:16:30;;;;;;;14.80;13.85;;;;;;;14.95;100.00;99836.22;10523426;28;20059;-68
2022/09/07 04:21:33;;;;;;;15.98;14.73;;;;;;;14.84;100.00;99847.38;10541982;28;20425;-68
2022/09/07 04:26:36;;;;;;;15.90;14.88;;;;;;;14.79;100.00;99836.19;10543162;28;20127;-68
2022/09/07 04:31:38;;;;;;;14.40;13.48;;;;;;;14.87;100.00;99840.13;10542305;28;20042;-68
2022/09/07 04:36:40;;;;;;;15.88;14.88;;;;;;;14.86;100.00;99834.91;10541959;28;20048;-68
2022/09/07 04:41:41;;;;;;;13.98;13.10;;;;;;;14.92;100.00;99831.06;10524088;28;20098;-68
2022/09/07 04:46:43;;;;;;;14.60;13.48;;;;;;;15.04;100.00;99831.28;10523760;28;20151;-69
2022/09/07 04:51:45;;;;;;;16.13;15.02;;;;;;;15.11;100.00;99837.13;10541528;28;20412;-68
2022/09/07 04:56:46;;;;;;;15.18;14.15;;;;;;;15.18;100.00;99835.81;10522858;28;20408;-68
2022/09/07 05:01:48;;;;;;;15.07;14.20;;;;;;;15.07;100.00;99841.72;10540097;28;20048;-68
2022/09/07 05:06:52;;;;;;;15.27;14.27;;;;;;;15.30;100.00;99837.81;10540295;28;20050;-69
2022/09/07 05:11:54;;;;;;;15.43;14.25;;;;;;;15.49;100.00;99835.00;10522630;28;20048;-68
2022/09/07 05:16:56;;;;;;;14.80;13.98;;;;;;;15.52;100.00;99839.28;10522016;28;20063;-69
2022/09/07 05:21:58;;;;;;;14.90;14.05;;;;;;;15.60;100.00;99829.13;10541513;28;20453;-68
2022/09/07 05:27:01;;;;;;;14.88;14.07;;;;;;;15.70;100.00;99824.19;10524556;28;20091;-70
2022/09/07 05:32:03;;;;;;;15.90;14.80;;;;;;;15.72;100.00;99819.69;10548049;28;20090;-67
2022/09/07 05:37:05;;;;;;;14.13;13.27;;;;;;;15.67;100.00;99819.94;10548305;28;20432;-69
2022/09/07 05:42:07;;;;;;;15.55;14.63;;;;;;;15.75;100.00;99822.16;10547342;28;20115;-68
2022/09/07 05:47:09;;;;;;;15.40;14.13;;;;;;;15.82;100.00;99826.16;10547054;28;20055;-68
2022/09/07 05:52:11;;;;;;;14.13;13.32;;;;;;;16.04;100.00;99837.25;10547282;28;20041;-69
2022/09/07 05:57:13;;;;;;;15.82;14.82;;;;;;;16.07;100.00;99831.78;10546757;28;20127;-68
2022/09/07 06:02:15;;;;;;;14.77;13.75;;;;;;;16.40;100.00;99825.44;10546774;28;20123;-68
2022/09/07 06:07:17;;;;;;;14.18;13.23;;;;;;;16.97;100.00;99820.25;10545704;28;20109;-68
2022/09/07 06:12:23;;;;;;;14.02;12.93;;;;;;;17.30;100.00;99827.06;10545820;28;20067;-68
2022/09/07 06:17:24;;;;;;;13.80;12.85;;;;;;;17.34;100.00;99813.50;10528798;28;20048;-68
2022/09/07 06:22:27;;;;;;;12.90;11.95;;;;;;;17.63;100.00;99809.00;10545398;28;20390;-68
2022/09/07 06:27:31;;;;;;;12.55;11.75;;;;;;;17.84;99.65;99789.94;10545430;28;20438;-68
2022/09/07 06:32:37;;;;;;;13.13;12.32;;;;;;;18.00;96.49;99792.47;10546090;28;20044;-68
2022/09/07 06:37:46;;;;;;;12.50;11.70;;;;;;;17.87;96.70;99813.69;10544393;28;20497;-68
2022/09/07 06:42:48;;;;;;;12.68;11.88;;;;;;;17.98;96.13;99813.00;10544583;28;20054;-68
2022/09/07 06:47:52;;;;;;;12.77;11.98;;;;;;;17.86;96.63;99812.00;10544671;28;20043;-67
2022/09/07 06:52:54;;;;;;;14.70;13.25;;;;;;;17.67;100.00;99808.81;10527276;28;20044;-68
2022/09/07 06:58:16;;;;;;;13.68;12.57;;;;;;;17.90;99.51;99819.66;10570031;22;20035;-73
2022/09/07 07:03:19;;;;;;;13.95;12.82;;;;;;;18.17;97.59;99804.66;10586795;28;20401;-74
2022/09/07 07:08:23;;;;;;;13.27;12.27;;;;;;;18.38;97.54;99798.72;10568299;28;20510;-73
2022/09/07 07:13:24;;;;;;;12.85;12.05;;;;;;;18.67;95.76;99803.88;10568243;28;20043;-73
2022/09/07 07:18:26;;;;;;;14.23;12.88;;;;;;;18.54;98.13;99810.97;10586044;28;20047;-73
2022/09/07 07:23:28;;;;;;;13.57;12.75;;;;;;;18.57;99.16;99808.13;10587513;28;20465;-73
2022/09/07 07:28:31;;;;;;;12.90;12.00;;;;;;;18.82;96.40;99802.00;10572186;28;20042;-73
2022/09/07 07:33:53;;;;;;;13.38;12.57;;;;;;;19.08;95.41;99795.69;10589561;28;20073;-73
2022/09/07 07:38:56;;;;;;;13.35;12.45;;;;;;;19.33;93.38;99789.44;10571617;28;20040;-73
2022/09/07 07:44:07;;;;;;;11.38;10.68;;;;;;;19.32;92.46;99781.56;10572544;28;20046;-73
2022/09/07 07:49:09;;;;;;;12.75;11.98;;;;;;;19.59;91.00;99771.56;10589626;28;20071;-72
2022/09/07 07:54:11;;;;;;;12.27;11.32;;;;;;;19.88;89.25;99773.94;10589006;28;20039;-72
2022/09/07 07:59:13;;;;;;;11.85;10.95;;;;;;;20.25;86.42;99784.50;10589633;28;20040;-74
2022/09/07 08:04:16;;;;;;;12.60;11.50;;;;;;;20.35;84.96;99772.16;10586414;28;20035;-73
2022/09/07 08:09:18;;;;;;;10.77;9.98;;;;;;;20.50;86.54;99780.88;10586564;28;20040;-75
2022/09/07 08:14:20;;;;;;;11.13;10.38;;;;;;;20.75;84.70;99780.63;10565160;28;20035;-74
2022/09/07 08:19:22;;;;;;;11.70;11.00;;;;;;;20.86;82.53;99779.81;10565481;28;20039;-73
2022/09/07 08:24:24;;;;;;;11.73;10.40;;;;;;;21.02;84.15;99788.31;10583249;28;20043;-74
2022/09/07 08:29:27;;;;;;;10.45;9.85;;;;;;;21.08;86.79;99779.81;10566221;28;20039;-74
2022/09/07 08:34:35;;;;;;;10.57;9.98;;;;;;;21.37;84.58;99774.00;10566916;28;20036;-75
2022/09/07 08:39:36;;;;;;;10.65;9.95;;;;;;;21.73;81.16;99771.97;10583770;28;20043;-74
2022/09/07 08:44:56;;;;;;;9.82;9.25;;;;;;;22.00;78.54;99768.81;10582910;28;20040;-73
2022/09/07 08:49:59;;;;;;;9.45;8.85;;;;;;;22.34;78.08;99766.88;10582790;28;20377;-73
2022/09/07 08:55:09;;;;;;;9.40;8.65;;;;;;;22.62;76.82;99760.00;10583246;28;20039;-74
2022/09/07 09:00:14;;;;;;;9.55;8.82;;;;;;;22.84;80.62;99758.97;10584061;28;20040;-74
2022/09/07 09:05:40;;;;;;;9.53;8.60;;;;;;;23.21;74.68;99755.78;10576342;28;20083;-74
2022/09/07 09:11:10;;;;;;;8.48;7.88;;;;;;;23.31;71.86;99746.78;10590995;28;20503;-74
2022/09/07 09:16:31;;;;;;;9.70;9.05;;;;;;;23.44;73.15;99740.31;10539862;28;20043;-75
2022/09/07 09:21:34;;;;;;;8.32;7.72;;;;;;;23.96;67.84;99744.50;10555498;28;20044;-75
2022/09/07 09:26:38;;;;;;;9.48;8.68;;;;;;;24.35;66.77;99739.97;10590259;28;20523;-75
2022/09/07 09:31:42;;;;;;;8.23;7.72;;;;;;;24.54;66.82;99736.41;10572030;28;20036;-74
2022/09/07 09:36:50;;;;;;;7.90;7.32;;;;;;;24.92;65.78;99734.56;10571891;28;20130;-75
2022/09/07 09:41:54;;;;;;;7.55;6.95;;;;;;;25.17;62.93;99739.31;10590602;28;20039;-74
2022/09/07 09:46:56;;;;;;;8.18;7.50;;;;;;;25.08;62.07;99734.81;10591056;28;20048;-74
2022/09/07 09:52:21;;;;;;;6.97;6.50;;;;;;;24.81;63.86;99722.16;10572172;28;20101;-75
2022/09/07 09:57:50;;;;;;;6.90;6.50;;;;;;;24.51;65.07;99719.72;10588997;28;20511;-75
2022/09/07 10:03:12;;;;;;;7.63;6.38;;;;;;;24.62;66.08;99733.00;10589213;28;20089;-75
2022/09/07 10:08:35;;;;;;;7.30;6.78;;;;;;;24.59;67.24;99725.22;10588222;28;20066;-75
2022/09/07 10:13:45;;;;;;;6.35;6.00;;;;;;;24.67;64.14;99722.66;10587499;28;20036;-74
2022/09/07 10:18:56;;;;;;;7.03;6.53;;;;;;;24.44;65.90;99721.28;10587944;28;20050;-76
2022/09/07 10:24:04;;;;;;;7.35;6.95;;;;;;;24.58;66.43;99716.31;10553767;28;20465;-74
2022/09/07 10:29:21;;;;;;;6.40;6.03;;;;;;;24.54;65.37;99714.91;10588107;28;20053;-75
2022/09/07 10:34:38;;;;;;;8.27;6.70;;;;;;;24.44;65.16;99713.22;10569788;28;20093;-74
2022/09/07 10:39:42;;;;;;;6.53;6.10;;;;;;;24.35;66.23;99718.47;10569435;28;20040;-75
2022/09/07 10:44:47;;;;;;;6.05;5.55;;;;;;;24.27;65.64;99709.44;10587881;28;20496;-75
2022/09/07 10:49:52;;;;;;;6.30;5.88;;;;;;;24.44;65.82;99713.22;10588686;28;20042;-74
2022/09/07 10:55:37;;;;;;;7.32;6.72;;;;;;;24.59;65.01;99715.31;10572711;28;20501;-74
2022/09/07 11:00:57;;;;;;;6.22;5.63;;;;;;;24.96;65.83;99706.38;10586872;28;20051;-75
2022/09/07 11:06:20;;;;;;;6.07;5.78;;;;;;;25.84;63.06;99698.66;10568226;28;20063;-75
2022/09/07 11:11:29;;;;;;;6.28;5.78;;;;;;;26.06;62.43;99698.16;10568665;28;20040;-74
2022/09/07 11:16:56;;;;;;;6.85;6.32;;;;;;;26.25;59.70;99702.50;10566909;28;20043;-74
2022/09/07 11:22:35;;;;;;;6.30;6.00;;;;;;;26.26;61.20;99704.22;10586549;28;20075;-74
2022/09/07 11:27:55;;;;;;;6.55;5.95;;;;;;;26.40;58.91;99694.72;10584604;28;20039;-75
2022/09/07 11:33:10;;;;;;;5.90;5.45;;;;;;;26.42;56.92;99693.53;10585142;28;20040;-74
2022/09/07 11:38:26;;;;;;;6.97;6.47;;;;;;;26.60;57.21;99692.66;10567058;28;20101;-74
2022/09/07 11:43:40;;;;;;;9.80;5.75;;;;;;;26.59;57.48;99685.59;10584382;28;20060;-75
2022/09/07 11:48:48;;;;;;;6.78;5.88;;;;;;;26.50;56.92;99675.78;10564682;28;20040;-75
2022/09/07 11:53:58;;;;;;;5.50;5.10;;;;;;;26.94;56.58;99667.56;10583842;28;20126;-75
2022/09/07 11:59:15;;;;;;;6.55;6.00;;;;;;;26.57;56.68;99671.44;10584870;28;20042;-75
2022/09/07 12:04:44;;;;;;;6.40;5.80;;;;;;;26.27;58.69;99659.25;10586729;28;20067;-75
2022/09/07 12:10:05;;;;;;;6.10;5.50;;;;;;;26.16;58.73;99661.22;10546935;28;20107;-75
2022/09/07 12:15:24;;;;;;;5.85;5.47;;;;;;;26.04;59.84;99648.16;10566764;28;20043;-74
2022/09/07 12:20:41;;;;;;;6.68;6.07;;;;;;;25.75;61.50;99643.00;10588017;28;20050;-75
2022/09/07 12:25:46;;;;;;;6.05;5.55;;;;;;;25.39;61.99;99633.13;10566626;28;20036;-74
2022/09/07 12:31:34;;;;;;;5.63;5.20;;;;;;;24.95;62.50;99642.88;10583339;28;20127;-75
2022/09/07 12:37:22;;;;;;;5.97;5.63;;;;;;;24.61;66.29;99662.28;10557614;28;20071;-75
2022/09/07 12:42:25;;;;;;;10.63;6.35;;;;;;;24.23;70.25;99647.09;10542066;28;20044;-75
2022/09/07 12:47:39;;;;;;;7.03;6.43;;;;;;;24.08;70.70;99633.28;10540720;28;20119;-75
2022/09/07 12:52:47;;;;;;;7.45;6.78;;;;;;;23.98;73.32;99653.09;10540368;28;20094;-75
2022/09/07 12:58:10;;;;;;;6.80;6.38;;;;;;;23.63;75.13;99678.63;10522729;28;20540;-73
2022/09/07 13:03:39;;;;;;;7.60;7.00;;;;;;;23.19;81.33;99678.16;10539482;28;20068;-72
2022/09/07 13:08:56;;;;;;;9.60;8.80;;;;;;;22.86;86.62;99682.00;10539797;28;20126;-72
2022/09/07 13:14:01;;;;;;;9.82;9.02;;;;;;;22.73;88.96;99673.34;10521582;28;20036;-72
2022/09/07 13:19:34;;;;;;;11.85;10.75;;;;;;;22.60;89.63;99685.13;10571687;28;20493;-72
2022/09/07 13:24:51;;;;;;;10.10;9.20;;;;;;;22.54;90.04;99685.69;10541082;28;20036;-71
2022/09/07 13:29:57;;;;;;;11.15;9.70;;;;;;;22.15;95.36;99665.88;10558177;28;20043;-72
2022/09/07 13:35:05;;;;;;;11.48;10.48;;;;;;;22.09;98.01;99663.66;10583659;28;20044;-72
2022/09/07 13:40:10;;;;;;;9.90;8.90;;;;;;;22.74;92.67;99642.88;10565437;28;20130;-73
2022/09/07 13:45:32;;;;;;;10.07;9.20;;;;;;;23.08;90.52;99644.28;10582293;28;20047;-71
2022/09/07 13:50:37;;;;;;;12.07;10.88;;;;;;;23.25;92.53;99644.59;10567960;28;20044;-73
2022/09/07 13:55:53;;;;;;;11.00;6.75;;;;;;;23.47;81.01;99632.75;10556837;28;20040;-73
2022/09/07 14:01:11;;;;;;;6.70;6.10;;;;;;;23.51;84.09;99623.44;10549885;28;20044;-73
2022/09/07 14:06:19;;;;;;;7.63;6.07;;;;;;;23.32;79.68;99622.44;10533770;28;20036;-73
2022/09/07 14:11:48;;;;;;;6.82;5.80;;;;;;;23.04;86.34;99618.72;10554224;28;20075;-72
2022/09/07 14:16:50;;;;;;;8.40;6.88;;;;;;;22.94;87.63;99615.19;10547231;28;20060;-73
2022/09/07 14:22:00;;;;;;;7.63;6.35;;;;;;;23.14;87.99;99629.47;10573082;28;20035;-73
2022/09/07 14:27:03;;;;;;;7.20;6.50;;;;;;;23.48;85.06;99629.09;10591511;28;20048;-72
2022/09/07 14:32:13;;;;;;;13.88;8.68;;;;;;;23.67;82.06;99627.25;10589047;28;20051;-71
2022/09/07 14:37:18;;;;;;;9.82;9.07;;;;;;;23.65;80.25;99618.50;10590551;28;20447;-71
2022/09/07 14:42:23;;;;;;;9.23;8.45;;;;;;;23.96;81.78;99620.19;10589765;28;20070;-72
2022/09/07 14:47:27;;;;;;;10.10;8.98;;;;;;;24.24;81.35;99621.94;10571047;28;20047;-72
2022/09/07 14:52:36;;;;;;;8.68;7.85;;;;;;;24.23;79.24;99640.88;10570060;28;20062;-72
2022/09/07 14:58:14;;;;;;;9.25;8.45;;;;;;;24.09;83.42;99632.28;10548539;28;20048;-72
2022/09/07 15:03:33;;;;;;;7.15;6.65;;;;;;;24.31;78.16;99609.63;10545762;28;20044;-72
2022/09/07 15:08:40;;;;;;;8.20;7.60;;;;;;;24.28;77.29;99599.16;10545291;28;20044;-72
2022/09/07 15:13:44;;;;;;;7.55;6.80;;;;;;;24.17;78.91;99604.69;10545366;28;20039;-72
2022/09/07 15:18:53;;;;;;;6.90;6.30;;;;;;;24.24;75.29;99604.97;10534561;28;20048;-72
2022/09/07 15:23:57;;;;;;;6.45;5.93;;;;;;;24.06;75.32;99595.00;10589765;28;20035;-71
2022/09/07 15:29:00;;;;;;;6.13;5.55;;;;;;;23.81;78.80;99583.03;10594389;28;20077;-72
2022/09/07 15:34:12;;;;;;;5.47;5.07;;;;;;;23.80;78.47;99573.28;10595445;28;20119;-72
2022/09/07 15:39:27;;;;;;;6.13;5.63;;;;;;;23.98;77.81;99559.97;10576099;28;20065;-72
2022/09/07 15:44:31;;;;;;;7.55;6.90;;;;;;;24.14;74.78;99552.16;10593419;28;20047;-72
2022/09/07 15:49:33;;;;;;;6.97;6.47;;;;;;;24.25;75.95;99550.25;10590868;28;20040;-73
2022/09/07 15:54:36;;;;;;;9.05;8.45;;;;;;;24.00;76.21;99544.56;10590329;28;20101;-72
2022/09/07 15:59:40;;;;;;;11.23;10.43;;;;;;;23.92;74.28;99547.97;10591768;28;20043;-72
2022/09/07 16:04:43;;;;;;;11.50;10.80;;;;;;;23.98;74.33;99545.69;10589849;28;20104;-72
2022/09/07 16:09:45;;;;;;;11.93;11.02;;;;;;;23.86;74.14;99540.53;10589221;28;20103;-72
2022/09/07 16:14:47;;;;;;;13.75;12.65;;;;;;;23.91;72.86;99548.13;10589526;28;20035;-71
2022/09/07 16:19:57;;;;;;;13.55;12.75;;;;;;;23.69;74.70;99535.06;10590911;28;20043;-72
2022/09/07 16:25:03;;;;;;;13.73;12.82;;;;;;;23.54;75.25;99543.50;10591682;28;20046;-72
2022/09/07 16:30:05;;;;;;;13.68;12.65;;;;;;;23.45;75.33;99555.09;10572557;28;20048;-72
2022/09/07 16:35:08;;;;;;;13.63;12.43;;;;;;;23.56;72.89;99565.69;10589481;28;20036;-72
2022/09/07 16:40:10;;;;;;;12.55;11.65;;;;;;;23.40;71.92;99566.25;10588448;28;20107;-71
2022/09/07 16:45:12;;;;;;;11.82;10.95;;;;;;;23.06;72.28;99573.84;10572014;28;20112;-72
2022/09/07 16:50:37;;;;;;;10.43;9.73;;;;;;;22.90;71.19;99571.72;10585889;28;20058;-71
2022/09/07 16:55:39;;;;;;;9.95;9.15;;;;;;;22.63;71.96;99561.63;10585932;28;20040;-72
2022/09/07 17:00:41;;;;;;;10.88;10.18;;;;;;;22.15;74.91;99546.25;10568424;28;20553;-72
2022/09/07 17:05:43;;;;;;;11.25;10.23;;;;;;;22.15;76.11;99532.88;10569332;28;20135;-72
2022/09/07 17:10:46;;;;;;;9.82;8.95;;;;;;;21.97;75.69;99513.03;10588120;28;20044;-73
2022/09/07 17:15:48;;;;;;;10.15;9.45;;;;;;;21.61;78.10;99511.72;10588055;28;20451;-72
2022/09/07 17:20:54;;;;;;;10.30;9.43;;;;;;;21.99;75.82;99520.91;10588204;28;20051;-72
2022/09/07 17:26:09;;;;;;;10.13;9.40;;;;;;;21.62;78.09;99535.66;10594601;28;20044;-72
2022/09/07 17:31:13;;;;;;;8.77;8.18;;;;;;;21.35;79.10;99551.38;10559731;28;20113;-72
2022/09/07 17:36:35;;;;;;;10.63;9.63;;;;;;;21.44;79.33;99560.44;10593447;28;20043;-72
2022/09/07 17:41:37;;;;;;;10.32;9.30;;;;;;;21.08;80.99;99567.84;10590974;28;20051;-72
2022/09/07 17:46:38;;;;;;;9.95;9.30;;;;;;;20.85;82.37;99562.59;10588194;28;20039;-71
2022/09/07 17:51:40;;;;;;;9.88;9.18;;;;;;;20.78;83.96;99569.41;10588610;28;20048;-73
2022/09/07 17:56:43;;;;;;;10.00;9.30;;;;;;;20.78;84.43;99584.56;10589347;28;20078;-72
2022/09/07 18:01:45;;;;;;;11.68;10.98;;;;;;;20.58;86.76;99580.81;10588493;28;20044;-72
2022/09/07 18:06:46;;;;;;;11.88;10.85;;;;;;;20.68;85.63;99583.63;10587843;28;20088;-71
2022/09/07 18:11:48;;;;;;;11.18;10.40;;;;;;;21.04;86.85;99582.44;10587849;28;20067;-71
2022/09/07 18:16:51;;;;;;;12.25;11.32;;;;;;;21.01;87.21;99582.69;10587508;28;20044;-71
2022/09/07 18:21:53;;;;;;;13.68;10.20;;;;;;;20.95;88.63;99578.72;10585018;28;20043;-71
2022/09/07 18:26:54;;;;;;;11.70;10.82;;;;;;;20.78;89.04;99573.88;10538939;28;20040;-71
2022/09/07 18:31:56;;;;;;;10.77;10.00;;;;;;;20.67;89.47;99588.09;10544875;28;20051;-71
2022/09/07 18:36:59;;;;;;;10.90;10.10;;;;;;;20.62;89.25;99593.81;10543501;28;20048;-71
2022/09/07 18:42:00;;;;;;;11.60;10.68;;;;;;;20.78;90.24;99585.41;10544497;28;20040;-71
2022/09/07 18:47:02;;;;;;;11.25;10.40;;;;;;;21.17;87.63;99589.31;10525813;28;20505;-72
2022/09/07 18:52:06;;;;;;;10.35;9.55;;;;;;;20.90;88.94;99586.25;10525537;28;20090;-73
2022/09/07 18:57:27;;;;;;;11.27;10.48;;;;;;;20.63;90.86;99589.34;10525494;28;20052;-71
2022/09/07 19:02:29;;;;;;;12.75;11.75;;;;;;;20.60;92.87;99587.75;10543610;28;20040;-73
2022/09/07 19:07:31;;;;;;;12.70;11.90;;;;;;;20.46;93.74;99574.63;10543834;28;20508;-73
2022/09/07 19:12:33;;;;;;;12.55;11.75;;;;;;;20.35;94.64;99559.47;10509576;28;20139;-72
2022/09/07 19:17:35;;;;;;;12.35;11.35;;;;;;;20.47;93.87;99554.97;10527551;28;20040;-72
2022/09/07 19:22:37;;;;;;;12.82;12.02;;;;;;;20.52;95.43;99533.28;10526051;28;20051;-72
2022/09/07 19:27:39;;;;;;;14.73;13.40;;;;;;;20.57;95.51;99536.41;10543672;28;20048;-72
2022/09/07 19:32:41;;;;;;;14.77;13.75;;;;;;;20.34;95.78;99554.25;10525288;28;20098;-71
2022/09/07 19:37:42;;;;;;;16.10;14.90;;;;;;;19.95;99.66;99561.75;10543724;28;20410;-72
2022/09/07 19:42:44;;;;;;;15.65;14.65;;;;;;;19.79;100.00;99569.25;10543357;28;20043;-72
2022/09/07 19:47:48;;;;;;;16.23;14.90;;;;;;;19.64;100.00;99563.28;10542178;28;20044;-72
2022/09/07 19:52:49;;;;;;;15.15;14.15;;;;;;;19.81;100.00;99548.66;10543046;28;20067;-71
2022/09/07 19:57:51;;;;;;;15.65;14.65;;;;;;;19.79;100.00;99535.44;10542469;28;20046;-71
2022/09/07 20:02:53;;;;;;;15.43;14.38;;;;;;;19.53;100.00;99537.44;10541862;28;20036;-72
2022/09/07 20:07:54;;;;;;;16.25;14.88;;;;;;;19.60;100.00;99565.34;10542252;28;20466;-72
2022/09/07 20:12:56;;;;;;;15.98;14.98;;;;;;;19.88;100.00;99572.06;10541433;28;20094;-73
2022/09/07 20:17:58;;;;;;;16.02;14.65;;;;;;;19.79;100.00;99564.78;10523242;28;20055;-71
2022/09/07 20:22:59;;;;;;;15.85;14.75;;;;;;;19.62;100.00;99554.56;10541545;28;20043;-73
2022/09/07 20:28:01;;;;;;;15.90;14.73;;;;;;;19.42;100.00;99543.56;10540936;28;20044;-72
2022/09/07 20:33:04;;;;;;;17.83;16.60;;;;;;;19.13;100.00;99534.28;10542307;28;20066;-72
2022/09/07 20:38:06;;;;;;;15.00;14.10;;;;;;;18.92;100.00;99533.22;10541319;28;20114;-73
2022/09/07 20:43:08;;;;;;;16.67;15.55;;;;;;;18.81;100.00;99528.66;10505839;28;20047;-71
2022/09/07 20:48:10;;;;;;;16.70;15.48;;;;;;;18.85;100.00;99532.81;10540311;28;20048;-74
2022/09/07 20:53:12;;;;;;;15.48;14.45;;;;;;;18.67;100.00;99519.00;10540683;28;20070;-73
2022/09/07 20:58:14;;;;;;;17.27;15.98;;;;;;;18.59;100.00;99518.72;10543097;28;20437;-73
2022/09/07 21:03:16;;;;;;;16.63;15.63;;;;;;;18.48;100.00;99519.50;10548391;28;20068;-71
2022/09/07 21:08:18;;;;;;;17.13;15.75;;;;;;;18.45;100.00;99533.03;10529508;28;20088;-72
2022/09/07 21:13:20;;;;;;;16.50;15.40;;;;;;;18.42;100.00;99525.28;10547669;28;20048;-73
2022/09/07 21:18:21;;;;;;;16.77;15.77;;;;;;;18.31;100.00;99522.53;10530074;28;20583;-71
2022/09/07 21:23:23;;;;;;;16.20;15.10;;;;;;;18.36;100.00;99517.72;10547934;28;20481;-71
2022/09/07 21:28:26;;;;;;;18.00;16.20;;;;;;;18.51;100.00;99513.97;10529789;28;20052;-72
2022/09/07 21:33:29;;;;;;;16.23;14.50;;;;;;;18.30;100.00;99507.53;10529326;28;20408;-72
2022/09/07 21:38:33;;;;;;;13.70;12.52;;;;;;;18.13;100.00;99522.03;10547271;28;20048;-71
2022/09/07 21:43:35;;;;;;;13.90;13.00;;;;;;;18.07;100.00;99522.47;10529107;28;20072;-72
2022/09/07 21:48:37;;;;;;;12.77;11.88;;;;;;;18.00;100.00;99508.75;10528841;28;20048;-72
2022/09/07 21:53:39;;;;;;;13.57;12.45;;;;;;;18.16;100.00;99505.88;10546979;28;20102;-73
2022/09/07 21:58:42;;;;;;;14.82;13.50;;;;;;;18.25;100.00;99505.22;10527720;28;20098;-71
2022/09/07 22:03:46;;;;;;;13.60;12.55;;;;;;;18.32;100.00;99506.44;10546347;28;20051;-71
2022/09/07 22:08:48;;;;;;;14.32;12.98;;;;;;;18.07;100.00;99503.88;10526867;28;20058;-72
2022/09/07 22:13:59;;;;;;;15.20;14.07;;;;;;;17.92;100.00;99489.81;10544688;28;20070;-72
2022/09/07 22:19:00;;;;;;;12.70;11.80;;;;;;;17.76;100.00;99484.75;10545148;28;20044;-72
2022/09/07 22:24:04;;;;;;;15.25;13.98;;;;;;;17.56;100.00;99486.09;10545767;28;20040;-71
2022/09/07 22:29:09;;;;;;;14.88;13.77;;;;;;;17.57;100.00;99485.13;10544480;28;20044;-70
2022/09/07 22:34:11;;;;;;;15.00;13.93;;;;;;;17.56;100.00;99483.44;10545226;28;20063;-72
2022/09/07 22:39:15;;;;;;;15.23;14.00;;;;;;;17.86;100.00;99474.31;10545770;28;20105;-72
2022/09/07 22:44:17;;;;;;;15.70;14.63;;;;;;;17.62;100.00;99472.41;10544818;28;20048;-71
2022/09/07 22:49:19;;;;;;;14.60;13.50;;;;;;;17.46;100.00;99479.72;10543600;28;20043;-71
2022/09/07 22:54:20;;;;;;;15.50;14.27;;;;;;;17.42;100.00;99477.38;10543524;28;20111;-72
2022/09/07 22:59:22;;;;;;;17.10;15.88;;;;;;;17.76;100.00;99474.13;10543436;28;20044;-71
2022/09/07 23:04:24;;;;;;;17.92;16.52;;;;;;;17.62;100.00;99471.56;10542654;28;20040;-72
2022/09/07 23:09:31;;;;;;;17.33;15.93;;;;;;;17.40;100.00;99464.22;10543975;28;20048;-71
2022/09/07 23:14:33;;;;;;;18.15;16.48;;;;;;;17.56;100.00;99464.00;10543655;28;20062;-71
2022/09/07 23:19:35;;;;;;;18.55;17.05;;;;;;;17.14;100.00;99464.19;10542642;28;20036;-71